Time;durP1;ratioP1;P1;durP2;ratioP2;P2;SDS_P1;SDS_P2;PMS_P1;PMS_P2;Temp;Humidity;BMP_temperature;BMP_pressure;BME280_temperature;BME280_humidity;BME280_pressure;Samples;Min_cycle;Max_cycle;Signal;HPM_P1;HPM_P2
2023/03/24 00:01:05;;;;;;;13.02;6.78;;;11.50;95.60;;;;;;5092939;28;20044;-77
2023/03/24 00:03:31;;;;;;;12.90;6.75;;;11.50;95.50;;;;;;5092484;28;20056;-77
2023/03/24 00:06:00;;;;;;;11.35;6.50;;;11.50;95.60;;;;;;5092359;28;20044;-77
2023/03/24 00:08:34;;;;;;;13.95;7.63;;;11.50;95.70;;;;;;5092659;28;20058;-77
2023/03/24 00:11:08;;;;;;;11.97;6.87;;;11.50;95.70;;;;;;5092693;28;20118;-77
2023/03/24 00:13:37;;;;;;;;;;;11.50;95.60;;;;;;5092911;28;20079;-78
2023/03/24 00:16:08;;;;;;;12.75;7.53;;;11.50;95.90;;;;;;5092473;28;20002;-76
2023/03/24 00:18:35;;;;;;;12.07;6.55;;;11.40;96.00;;;;;;5092351;28;20101;-77
2023/03/24 00:21:03;;;;;;;14.23;7.40;;;11.40;96.10;;;;;;5075728;28;20085;-76
2023/03/24 00:23:32;;;;;;;13.73;7.63;;;11.40;96.20;;;;;;5091956;28;20392;-77
2023/03/24 00:26:13;;;;;;;17.50;7.90;;;11.40;96.30;;;;;;5092136;28;20082;-77
2023/03/24 00:28:41;;;;;;;16.10;7.72;;;11.40;96.30;;;;;;5092229;28;20101;-78
2023/03/24 00:31:08;;;;;;;12.60;6.18;;;11.40;96.20;;;;;;5075273;28;20044;-77
2023/03/24 00:33:35;;;;;;;9.65;6.97;;;11.30;96.40;;;;;;5075372;28;20594;-78
2023/03/24 00:36:06;;;;;;;14.55;6.57;;;11.30;96.50;;;;;;5092200;28;20062;-76
2023/03/24 00:38:33;;;;;;;12.50;6.80;;;11.30;96.50;;;;;;5070952;28;20105;-78
2023/03/24 00:40:59;;;;;;;9.88;6.40;;;11.40;96.60;;;;;;5055506;28;20048;-78
2023/03/24 00:43:27;;;;;;;15.32;6.82;;;11.30;96.70;;;;;;5076634;28;20098;-77
2023/03/24 00:46:05;;;;;;;12.32;7.03;;;11.30;96.90;;;;;;5095636;28;20130;-77
2023/03/24 00:48:31;;;;;;;13.35;6.93;;;11.30;96.80;;;;;;5095582;28;20074;-78
2023/03/24 00:50:59;;;;;;;12.07;7.30;;;11.30;96.80;;;;;;5095554;28;20044;-77
2023/03/24 00:53:28;;;;;;;11.40;6.40;;;11.30;96.60;;;;;;5095011;28;20065;-77
2023/03/24 00:55:55;;;;;;;12.15;6.50;;;11.30;96.50;;;;;;5079371;28;20108;-79
2023/03/24 00:58:21;;;;;;;10.55;5.47;;;11.30;96.50;;;;;;5112606;28;20388;-77
2023/03/24 01:00:56;;;;;;;11.07;5.88;;;11.30;96.60;;;;;;5095246;28;20039;-77
2023/03/24 01:03:26;;;;;;;9.85;5.93;;;11.30;96.90;;;;;;5095183;28;20044;-77
2023/03/24 01:06:00;;;;;;;13.07;6.60;;;11.30;97.00;;;;;;5112451;28;20369;-76
2023/03/24 01:08:27;;;;;;;12.27;6.10;;;11.30;96.80;;;;;;5112194;28;20081;-79
2023/03/24 01:10:54;;;;;;;12.98;6.20;;;11.20;96.90;;;;;;5104116;28;20030;-78
2023/03/24 01:13:26;;;;;;;13.70;6.43;;;11.20;97.00;;;;;;5098938;28;20553;-79
2023/03/24 01:15:52;;;;;;;10.93;5.25;;;11.20;97.00;;;;;;5115608;28;20039;-78
2023/03/24 01:18:18;;;;;;;11.32;6.13;;;11.30;97.00;;;;;;5098633;28;20035;-78
2023/03/24 01:20:47;;;;;;;8.85;5.50;;;11.30;97.00;;;;;;5115269;28;20099;-76
2023/03/24 01:23:19;;;;;;;8.18;5.50;;;11.30;97.10;;;;;;5115096;28;20035;-78
2023/03/24 01:25:47;;;;;;;8.63;5.43;;;11.30;97.30;;;;;;5082048;28;20437;-77
2023/03/24 01:28:14;;;;;;;9.55;5.75;;;11.30;97.10;;;;;;5113949;28;20043;-77
2023/03/24 01:30:40;;;;;;;9.18;6.03;;;11.30;97.20;;;;;;5113221;28;20100;-77
2023/03/24 01:33:06;;;;;;;9.30;5.95;;;11.30;97.10;;;;;;5114044;28;20039;-77
2023/03/24 01:35:32;;;;;;;14.13;6.13;;;11.30;97.20;;;;;;5113794;28;20130;-76
2023/03/24 01:37:58;;;;;;;8.15;5.22;;;11.30;97.20;;;;;;5113952;28;20125;-78
2023/03/24 01:40:27;;;;;;;8.35;6.05;;;11.40;97.10;;;;;;5112947;28;20047;-78
2023/03/24 01:42:53;;;;;;;10.43;6.35;;;11.40;97.10;;;;;;5111032;28;20411;-77
2023/03/24 01:45:40;;;;;;;9.65;6.28;;;11.40;97.00;;;;;;5077042;28;20052;-77
2023/03/24 01:48:34;;;;;;;10.30;6.55;;;11.40;97.00;;;;;;5111176;28;20052;-76
2023/03/24 01:51:15;;;;;;;9.75;6.55;;;11.40;97.10;;;;;;5113500;28;20042;-79
2023/03/24 01:53:47;;;;;;;8.52;5.80;;;11.40;97.10;;;;;;5115124;28;20444;-78
2023/03/24 01:56:13;;;;;;;8.48;6.40;;;11.40;97.10;;;;;;5097824;28;20055;-77
2023/03/24 01:58:43;;;;;;;9.05;6.13;;;11.40;97.20;;;;;;5079856;28;20043;-78
2023/03/24 02:01:09;;;;;;;12.80;6.57;;;11.40;97.00;;;;;;5097752;28;20036;-77
2023/03/24 02:03:38;;;;;;;9.48;6.65;;;11.40;97.20;;;;;;5097449;28;20123;-77
2023/03/24 02:06:07;;;;;;;10.10;5.90;;;11.50;97.00;;;;;;5081283;28;20035;-79
2023/03/24 02:08:49;;;;;;;9.95;5.97;;;11.50;96.90;;;;;;5114591;28;20132;-78
2023/03/24 02:11:15;;;;;;;10.52;6.80;;;11.50;97.10;;;;;;5097432;28;20036;-77
2023/03/24 02:13:41;;;;;;;9.07;6.43;;;11.50;97.10;;;;;;5080562;28;20047;-78
2023/03/24 02:16:16;;;;;;;9.68;6.45;;;11.50;97.10;;;;;;5109895;27;20058;-77
2023/03/24 02:18:48;;;;;;;11.30;5.68;;;11.50;97.10;;;;;;5117808;27;20126;-77
2023/03/24 02:21:51;;;;;;;12.32;6.43;;;11.50;97.20;;;;;;5100631;27;20043;-77
2023/03/24 02:24:19;;;;;;;12.70;6.90;;;11.50;97.20;;;;;;5100750;27;20040;-77
2023/03/24 02:27:06;;;;;;;9.77;6.20;;;11.50;97.30;;;;;;5117560;27;20131;-77
2023/03/24 02:29:56;;;;;;;10.40;6.53;;;11.50;97.40;;;;;;5117572;27;20078;-79
2023/03/24 02:32:33;;;;;;;9.68;6.40;;;11.50;97.40;;;;;;5099565;27;20037;-78
2023/03/24 02:35:09;;;;;;;11.45;6.88;;;11.50;97.30;;;;;;5100569;27;20039;-76
2023/03/24 02:37:43;;;;;;;9.65;5.10;;;11.50;97.30;;;;;;5117330;27;20043;-78
2023/03/24 02:40:47;;;;;;;11.95;7.22;;;11.60;97.10;;;;;;5117367;27;20039;-78
2023/03/24 02:43:59;;;;;;;8.50;5.88;;;11.60;97.10;;;;;;5078510;27;20073;-77
2023/03/24 02:46:38;;;;;;;7.70;5.70;;;11.60;97.00;;;;;;5113186;27;20042;-78
2023/03/24 02:49:55;;;;;;;6.22;5.03;;;11.60;96.80;;;;;;5116104;27;20098;-76
2023/03/24 02:52:47;;;;;;;3.60;3.15;;;11.50;96.60;;;;;;5045827;27;20390;-77
2023/03/24 02:55:35;;;;;;;5.35;3.80;;;11.50;95.80;;;;;;5117102;27;20039;-78
2023/03/24 02:58:06;;;;;;;6.10;3.70;;;11.60;95.60;;;;;;5117011;27;20050;-79
2023/03/24 03:00:45;;;;;;;7.05;4.20;;;11.50;95.40;;;;;;5117227;27;20373;-78
2023/03/24 03:03:28;;;;;;;6.43;3.70;;;11.40;95.20;;;;;;5116928;27;20039;-78
2023/03/24 03:05:58;;;;;;;6.53;3.63;;;11.40;95.10;;;;;;5115880;27;20042;-79
2023/03/24 03:08:28;;;;;;;6.78;3.03;;;11.30;95.00;;;;;;5116881;27;20112;-77
2023/03/24 03:10:56;;;;;;;5.57;2.40;;;11.20;94.90;;;;;;5116538;27;20039;-77
2023/03/24 03:13:39;;;;;;;9.27;4.03;;;11.20;94.70;;;;;;5116862;27;20047;-78
2023/03/24 03:16:15;;;;;;;4.45;2.15;;;11.10;94.50;;;;;;5099900;27;20460;-78
2023/03/24 03:18:42;;;;;;;8.90;2.50;;;11.10;94.00;;;;;;5116877;27;20035;-77
2023/03/24 03:21:15;;;;;;;6.55;2.33;;;11.00;93.80;;;;;;5116465;27;20569;-77
2023/03/24 03:24:01;;;;;;;5.57;2.45;;;11.10;93.60;;;;;;5114997;27;20031;-78
2023/03/24 03:26:31;;;;;;;9.18;2.25;;;11.00;93.40;;;;;;5099537;27;20047;-78
2023/03/24 03:29:03;;;;;;;6.38;1.95;;;11.00;93.40;;;;;;5116717;27;20050;-78
2023/03/24 03:31:34;;;;;;;6.97;2.10;;;11.00;93.10;;;;;;5116295;27;20047;-77
2023/03/24 03:34:18;;;;;;;6.97;2.10;;;10.90;92.40;;;;;;5116482;27;20055;-77
2023/03/24 03:37:03;;;;;;;7.40;2.58;;;10.90;91.90;;;;;;5116342;27;20046;-77
2023/03/24 03:39:33;;;;;;;11.93;1.83;;;10.80;91.70;;;;;;5115303;27;20027;-77
2023/03/24 03:41:58;;;;;;;9.50;1.65;;;10.80;91.70;;;;;;5099027;27;20050;-76
2023/03/24 03:44:25;;;;;;;5.85;2.17;;;10.80;91.40;;;;;;5115880;27;20078;-77
2023/03/24 03:46:51;;;;;;;9.75;2.30;;;10.70;91.50;;;;;;5116139;27;20131;-77
2023/03/24 03:49:17;;;;;;;9.05;1.98;;;10.60;91.50;;;;;;5098990;27;20051;-77
2023/03/24 03:51:43;;;;;;;11.43;2.25;;;10.50;91.70;;;;;;5099505;27;20043;-77
2023/03/24 03:54:11;;;;;;;11.10;2.42;;;10.50;91.40;;;;;;5116211;27;20517;-77
2023/03/24 03:56:37;;;;;;;8.82;2.03;;;10.50;91.40;;;;;;5099012;27;20039;-77
2023/03/24 03:59:05;;;;;;;6.63;1.88;;;10.50;91.60;;;;;;5116928;27;20043;-77
2023/03/24 04:01:35;;;;;;;9.82;3.05;;;10.40;91.40;;;;;;5101035;27;20074;-77
2023/03/24 04:04:20;;;;;;;5.25;1.77;;;10.40;91.30;;;;;;5118813;27;20038;-78
2023/03/24 04:07:06;;;;;;;;;;;10.30;91.50;;;;;;5101955;27;20039;-78
2023/03/24 04:09:54;;;;;;;16.90;3.25;;;10.20;91.30;;;;;;5118375;27;19915;-78
2023/03/24 04:13:02;;;;;;;7.32;2.00;;;10.20;91.30;;;;;;5115760;27;20490;-77
2023/03/24 04:15:33;;;;;;;11.27;2.95;;;10.00;91.30;;;;;;5060359;27;20050;-77
2023/03/24 04:18:20;;;;;;;9.13;2.00;;;10.00;91.50;;;;;;5115495;27;20035;-77
2023/03/24 04:21:27;;;;;;;13.10;2.05;;;10.00;91.70;;;;;;5115534;27;20035;-77
2023/03/24 04:24:04;;;;;;;9.55;2.25;;;9.80;91.70;;;;;;5115334;27;20076;-77
2023/03/24 04:26:40;;;;;;;12.88;2.97;;;9.80;91.80;;;;;;5115414;27;20078;-77
2023/03/24 04:29:08;;;;;;;11.20;2.72;;;9.70;91.90;;;;;;5114113;27;20065;-76
2023/03/24 04:31:41;;;;;;;12.02;3.03;;;9.70;92.20;;;;;;5115493;27;20125;-77
2023/03/24 04:34:15;;;;;;;11.55;2.58;;;9.70;92.20;;;;;;5115299;27;20057;-77
2023/03/24 04:36:53;;;;;;;13.82;3.25;;;9.70;92.20;;;;;;5115375;28;20043;-77
2023/03/24 04:39:29;;;;;;;15.60;3.53;;;9.60;92.50;;;;;;5115302;27;20103;-77
2023/03/24 04:41:58;;;;;;;14.32;3.28;;;9.60;92.40;;;;;;5115306;28;20043;-77
2023/03/24 04:44:25;;;;;;;13.63;2.80;;;9.60;92.80;;;;;;5113850;28;20506;-77
2023/03/24 04:46:55;;;;;;;18.85;3.78;;;9.60;92.70;;;;;;5115282;28;20039;-77
2023/03/24 04:49:24;;;;;;;12.27;2.85;;;9.50;93.00;;;;;;5115247;28;20501;-77
2023/03/24 04:51:50;;;;;;;12.38;3.22;;;9.50;93.30;;;;;;5096943;28;20077;-77
2023/03/24 04:54:17;;;;;;;18.92;4.07;;;9.50;93.30;;;;;;5115454;28;20039;-78
2023/03/24 04:56:47;;;;;;;10.73;2.58;;;9.40;93.50;;;;;;5115385;28;20043;-78
2023/03/24 04:59:14;;;;;;;10.82;3.20;;;9.40;93.70;;;;;;5115069;28;20039;-77
2023/03/24 05:01:40;;;;;;;11.32;2.80;;;9.40;93.90;;;;;;5098155;28;20043;-77
2023/03/24 05:04:07;;;;;;;12.43;3.10;;;9.30;94.00;;;;;;5114900;28;20043;-77
2023/03/24 05:06:33;;;;;;;13.20;3.83;;;9.30;93.90;;;;;;5113770;28;20043;-78
2023/03/24 05:08:59;;;;;;;10.80;3.22;;;9.30;94.30;;;;;;5114943;28;20031;-78
2023/03/24 05:11:26;;;;;;;12.65;4.53;;;9.30;94.30;;;;;;5097814;28;20042;-78
2023/03/24 05:13:52;;;;;;;16.02;3.83;;;9.20;94.40;;;;;;5081134;28;20039;-77
2023/03/24 05:16:18;;;;;;;22.33;4.88;;;9.10;94.80;;;;;;5114934;28;20046;-78
2023/03/24 05:18:44;;;;;;;17.08;4.18;;;9.10;94.60;;;;;;5109754;28;20073;-77
2023/03/24 05:21:09;;;;;;;14.02;3.42;;;9.00;94.90;;;;;;5114644;28;20486;-77
2023/03/24 05:23:35;;;;;;;12.40;3.05;;;9.00;94.90;;;;;;5114554;28;20039;-77
2023/03/24 05:26:01;;;;;;;15.75;4.07;;;9.00;94.70;;;;;;5117021;27;20505;-78
2023/03/24 05:28:27;;;;;;;16.52;4.32;;;9.00;94.70;;;;;;5118374;27;20589;-79
2023/03/24 05:30:53;;;;;;;11.10;4.28;;;9.00;94.70;;;;;;5118115;27;20130;-77
2023/03/24 05:33:19;;;;;;;9.80;4.05;;;9.00;94.50;;;;;;5117844;27;20035;-77
2023/03/24 05:35:44;;;;;;;17.25;3.70;;;8.90;94.60;;;;;;5116554;27;20035;-78
2023/03/24 05:38:10;;;;;;;17.35;3.35;;;8.90;94.70;;;;;;5118286;27;20508;-77
2023/03/24 05:40:36;;;;;;;14.63;3.00;;;9.00;94.30;;;;;;5100712;27;20406;-78
2023/03/24 05:43:02;;;;;;;15.40;4.13;;;9.00;94.50;;;;;;5117326;27;20048;-78
2023/03/24 05:45:29;;;;;;;16.77;3.55;;;8.90;94.30;;;;;;5114048;28;20054;-77
2023/03/24 05:47:54;;;;;;;11.32;2.55;;;9.00;94.40;;;;;;5081022;28;20369;-77
2023/03/24 05:50:22;;;;;;;11.88;2.85;;;8.90;94.30;;;;;;5097201;28;20039;-77
2023/03/24 05:52:48;;;;;;;12.85;3.33;;;9.00;94.10;;;;;;5114301;28;20103;-77
2023/03/24 05:55:14;;;;;;;12.50;3.20;;;9.00;94.20;;;;;;5114137;28;20039;-77
2023/03/24 05:57:42;;;;;;;11.98;2.95;;;8.90;94.40;;;;;;5114584;28;20100;-77
2023/03/24 06:00:14;;;;;;;9.93;3.08;;;8.90;94.50;;;;;;5111861;28;20035;-77
2023/03/24 06:02:40;;;;;;;15.13;3.30;;;8.90;94.40;;;;;;5097369;28;20039;-78
2023/03/24 06:05:07;;;;;;;18.20;3.97;;;8.90;94.50;;;;;;5114473;28;20038;-77
2023/03/24 06:07:33;;;;;;;12.52;2.95;;;8.80;94.80;;;;;;5114116;28;20035;-78
2023/03/24 06:10:02;;;;;;;16.65;3.17;;;8.80;94.70;;;;;;5114143;28;20441;-77
2023/03/24 06:12:29;;;;;;;14.18;3.15;;;8.80;94.70;;;;;;5094243;28;20034;-78
2023/03/24 06:14:56;;;;;;;12.38;3.65;;;8.90;94.50;;;;;;5114341;28;20391;-78
2023/03/24 06:17:23;;;;;;;12.13;3.15;;;8.90;94.60;;;;;;5114000;28;20495;-77
2023/03/24 06:19:49;;;;;;;20.08;3.30;;;8.90;94.60;;;;;;5111449;28;20040;-78
2023/03/24 06:22:16;;;;;;;12.82;4.25;;;8.90;94.50;;;;;;5114192;28;20032;-77
2023/03/24 06:24:43;;;;;;;18.83;3.33;;;9.00;94.40;;;;;;5097257;28;20544;-77
2023/03/24 06:27:10;;;;;;;14.52;3.92;;;9.00;94.40;;;;;;5097249;28;20506;-78
2023/03/24 06:29:36;;;;;;;15.32;3.13;;;9.00;94.30;;;;;;5114386;28;20051;-77
2023/03/24 06:32:02;;;;;;;15.63;3.78;;;9.10;94.20;;;;;;5114085;28;20396;-78
2023/03/24 06:34:28;;;;;;;18.38;3.72;;;9.10;94.10;;;;;;5114075;28;20051;-79
2023/03/24 06:36:55;;;;;;;11.57;3.28;;;9.10;94.00;;;;;;5097091;28;20448;-78
2023/03/24 06:39:21;;;;;;;11.52;3.15;;;9.10;94.30;;;;;;5113996;28;20043;-79
2023/03/24 06:41:46;;;;;;;9.73;2.22;;;9.10;94.10;;;;;;5113773;28;20080;-78
2023/03/24 06:44:12;;;;;;;14.68;3.00;;;9.10;94.20;;;;;;5113641;28;20047;-77
2023/03/24 06:46:39;;;;;;;14.85;2.97;;;9.20;94.10;;;;;;5113966;28;20044;-78
2023/03/24 06:49:05;;;;;;;14.05;4.32;;;9.20;94.10;;;;;;5096763;28;20071;-78
2023/03/24 06:51:31;;;;;;;17.05;5.32;;;9.20;94.00;;;;;;5114036;28;20096;-78
2023/03/24 06:53:57;;;;;;;17.55;3.88;;;9.20;93.90;;;;;;5113887;28;20043;-78
2023/03/24 06:56:22;;;;;;;22.08;4.13;;;9.20;94.00;;;;;;5113876;28;20051;-78
2023/03/24 06:58:48;;;;;;;19.98;3.83;;;9.30;94.00;;;;;;5113829;28;20430;-77
2023/03/24 07:01:14;;;;;;;15.80;4.00;;;9.30;93.80;;;;;;5096560;28;20372;-78
2023/03/24 07:03:43;;;;;;;16.95;2.90;;;9.40;93.50;;;;;;5113441;28;20039;-79
2023/03/24 07:06:09;;;;;;;19.13;4.50;;;9.50;93.50;;;;;;5113548;28;20035;-78
2023/03/24 07:08:36;;;;;;;23.85;4.57;;;9.60;93.10;;;;;;5113445;28;20039;-78
2023/03/24 07:11:02;;;;;;;15.95;3.72;;;9.50;93.10;;;;;;5113265;28;20046;-78
2023/03/24 07:13:28;;;;;;;24.80;4.50;;;9.60;93.20;;;;;;5113836;28;20391;-79
2023/03/24 07:15:55;;;;;;;18.02;4.25;;;9.60;93.20;;;;;;5113380;28;20043;-77
2023/03/24 07:18:20;;;;;;;20.23;4.63;;;9.70;93.00;;;;;;5096276;28;20044;-77
2023/03/24 07:20:46;;;;;;;24.17;4.18;;;9.70;92.60;;;;;;5113236;28;20074;-78
2023/03/24 07:23:12;;;;;;;20.83;5.88;;;9.80;92.30;;;;;;5113147;28;20123;-79
2023/03/24 07:25:41;;;;;;;28.08;4.10;;;9.80;92.10;;;;;;5096109;28;20793;-78
2023/03/24 07:28:07;;;;;;;27.38;5.05;;;9.80;92.10;;;;;;5096384;28;20040;-79
2023/03/24 07:30:35;;;;;;;18.40;4.75;;;9.80;92.30;;;;;;5112978;28;20608;-78
2023/03/24 07:33:01;;;;;;;18.70;4.68;;;9.80;92.20;;;;;;5096079;28;20395;-78
2023/03/24 07:35:28;;;;;;;19.50;4.22;;;9.80;92.00;;;;;;5113223;28;20068;-78
2023/03/24 07:38:01;;;;;;;18.33;3.38;;;9.80;91.90;;;;;;5095837;28;20047;-78
2023/03/24 07:40:26;;;;;;;27.70;6.03;;;10.00;91.80;;;;;;5112765;28;20044;-78
2023/03/24 07:42:52;;;;;;;17.05;4.63;;;9.90;91.70;;;;;;5112795;28;20640;-79
2023/03/24 07:45:18;;;;;;;19.77;4.78;;;9.90;91.80;;;;;;5078619;28;20048;-80
2023/03/24 07:47:45;;;;;;;27.05;5.18;;;10.00;91.70;;;;;;5095221;28;20050;-78
2023/03/24 07:50:12;;;;;;;18.85;4.72;;;10.00;91.90;;;;;;5112569;28;20039;-79
2023/03/24 07:52:39;;;;;;;19.38;5.38;;;10.10;91.70;;;;;;5112711;28;20058;-78
2023/03/24 07:55:14;;;;;;;20.35;4.53;;;10.10;91.40;;;;;;5112508;28;20090;-78
2023/03/24 07:57:41;;;;;;;23.15;4.53;;;10.10;91.10;;;;;;5079508;28;20032;-78
2023/03/24 08:00:16;;;;;;;24.63;5.78;;;10.20;91.40;;;;;;5112417;28;20043;-78
2023/03/24 08:02:47;;;;;;;26.63;5.07;;;10.30;90.50;;;;;;5112520;28;20043;-78
2023/03/24 08:05:14;;;;;;;24.13;6.53;;;10.30;90.50;;;;;;5112395;28;20031;-78
2023/03/24 08:07:49;;;;;;;26.88;5.85;;;10.50;90.50;;;;;;5095566;28;20043;-78
2023/03/24 08:10:15;;;;;;;30.45;5.95;;;10.50;90.00;;;;;;5112255;28;20074;-77
2023/03/24 08:12:41;;;;;;;27.77;5.43;;;10.50;89.40;;;;;;5112061;28;20518;-78
2023/03/24 08:15:08;;;;;;;23.60;5.20;;;10.60;89.50;;;;;;5078634;28;20043;-78
2023/03/24 08:17:34;;;;;;;25.67;5.72;;;10.60;89.40;;;;;;5112132;28;20081;-79
2023/03/24 08:20:03;;;;;;;25.10;5.65;;;10.60;89.00;;;;;;5112104;28;20046;-78
2023/03/24 08:22:29;;;;;;;21.05;5.50;;;10.60;89.30;;;;;;5095529;28;20039;-79
2023/03/24 08:24:55;;;;;;;26.92;6.38;;;10.60;89.00;;;;;;5112431;28;20039;-77
2023/03/24 08:27:20;;;;;;;25.33;5.25;;;10.70;89.00;;;;;;5111962;28;20506;-78
2023/03/24 08:29:46;;;;;;;24.23;4.50;;;10.60;88.60;;;;;;5111851;28;20404;-77
2023/03/24 08:32:12;;;;;;;22.95;4.78;;;10.60;88.60;;;;;;5111858;28;20071;-78
2023/03/24 08:34:38;;;;;;;17.33;5.07;;;10.60;88.40;;;;;;5111918;28;20040;-78
2023/03/24 08:37:03;;;;;;;23.85;5.05;;;10.70;88.00;;;;;;5111902;28;20047;-78
2023/03/24 08:39:31;;;;;;;19.00;5.45;;;10.80;88.10;;;;;;5112116;28;20043;-79
2023/03/24 08:41:57;;;;;;;14.68;4.07;;;10.80;87.90;;;;;;5111837;28;20051;-78
2023/03/24 08:44:23;;;;;;;15.95;5.68;;;10.80;87.50;;;;;;5094601;28;20136;-80
2023/03/24 08:46:48;;;;;;;20.10;4.28;;;10.70;87.10;;;;;;5095145;28;20119;-79
2023/03/24 08:49:14;;;;;;;22.85;5.07;;;10.80;87.30;;;;;;5094732;28;20039;-78
2023/03/24 08:51:40;;;;;;;26.25;5.78;;;10.80;87.00;;;;;;5111639;28;20032;-78
2023/03/24 08:54:06;;;;;;;23.73;4.93;;;10.90;87.20;;;;;;5112107;28;20044;-78
2023/03/24 08:56:32;;;;;;;15.45;4.55;;;10.90;86.00;;;;;;5078335;28;20441;-78
2023/03/24 08:58:58;;;;;;;16.35;3.50;;;10.80;85.50;;;;;;5095721;28;20043;-78
2023/03/24 09:01:23;;;;;;;28.85;7.30;;;10.90;85.70;;;;;;5098806;28;20039;-78
2023/03/24 09:03:49;;;;;;;23.23;5.07;;;11.00;85.90;;;;;;5115805;28;20076;-79
2023/03/24 09:06:15;;;;;;;24.30;5.22;;;11.10;85.70;;;;;;5115813;28;20042;-79
2023/03/24 09:08:41;;;;;;;20.02;4.30;;;11.20;85.80;;;;;;5115756;28;20042;-79
2023/03/24 09:11:14;;;;;;;16.27;4.32;;;11.20;85.10;;;;;;5115978;28;20047;-78
2023/03/24 09:13:40;;;;;;;23.73;3.83;;;11.30;84.20;;;;;;5115637;28;20051;-79
2023/03/24 09:16:06;;;;;;;21.63;3.70;;;11.30;84.10;;;;;;5115909;28;20036;-78
2023/03/24 09:18:32;;;;;;;17.60;5.10;;;11.30;83.10;;;;;;5115512;28;20131;-79
2023/03/24 09:20:58;;;;;;;17.02;3.60;;;11.10;82.40;;;;;;5098618;28;20040;-77
2023/03/24 09:23:23;;;;;;;15.07;3.95;;;11.30;81.10;;;;;;5115392;28;20046;-78
2023/03/24 09:25:50;;;;;;;18.45;4.78;;;11.30;82.10;;;;;;5098503;28;20046;-78
2023/03/24 09:28:17;;;;;;;14.90;3.10;;;11.50;82.40;;;;;;5115336;28;20510;-79
2023/03/24 09:30:43;;;;;;;16.52;5.05;;;11.50;81.90;;;;;;5115774;28;20032;-80
2023/03/24 09:33:09;;;;;;;15.38;4.20;;;11.50;80.90;;;;;;5081505;28;20040;-79
2023/03/24 09:35:35;;;;;;;18.05;4.25;;;11.60;80.90;;;;;;5115326;28;20039;-79
2023/03/24 09:38:01;;;;;;;18.38;4.55;;;11.60;81.10;;;;;;5098204;28;20043;-79
2023/03/24 09:40:29;;;;;;;17.58;4.28;;;11.60;80.70;;;;;;5115153;28;20047;-80
2023/03/24 09:43:04;;;;;;;21.88;4.40;;;11.70;81.40;;;;;;5114963;28;20039;-79
2023/03/24 09:45:35;;;;;;;18.33;4.15;;;11.90;81.80;;;;;;5114914;28;20056;-79
2023/03/24 09:48:12;;;;;;;16.65;3.88;;;12.00;80.00;;;;;;5098213;28;20062;-79
2023/03/24 09:50:57;;;;;;;17.85;5.32;;;12.00;78.80;;;;;;5115140;28;20035;-79
2023/03/24 09:53:45;;;;;;;21.77;4.65;;;12.00;79.80;;;;;;5097911;28;20109;-79
2023/03/24 09:56:15;;;;;;;15.98;3.35;;;12.10;79.90;;;;;;5114863;28;20514;-79
2023/03/24 09:58:42;;;;;;;15.70;4.05;;;12.20;79.90;;;;;;5114731;28;20526;-80
2023/03/24 10:01:16;;;;;;;14.10;3.45;;;12.20;78.80;;;;;;5114681;28;20035;-80
2023/03/24 10:03:43;;;;;;;17.95;3.35;;;12.10;78.70;;;;;;5114649;28;20059;-79
2023/03/24 10:06:22;;;;;;;16.83;3.30;;;12.10;78.80;;;;;;5114607;28;20042;-78
2023/03/24 10:09:03;;;;;;;17.33;3.78;;;12.00;77.90;;;;;;5097847;28;20051;-79
2023/03/24 10:11:49;;;;;;;16.95;4.40;;;12.20;78.10;;;;;;5114222;28;20031;-80
2023/03/24 10:14:42;;;;;;;15.00;3.08;;;12.30;78.40;;;;;;5114456;28;20050;-80
2023/03/24 10:17:11;;;;;;;17.33;4.03;;;12.50;76.70;;;;;;5097415;28;20483;-79
2023/03/24 10:19:51;;;;;;;20.92;4.15;;;12.50;77.30;;;;;;5114350;28;20492;-80
2023/03/24 10:22:27;;;;;;;15.77;3.63;;;12.50;75.10;;;;;;5114263;28;20050;-79
2023/03/24 10:24:57;;;;;;;19.52;5.32;;;12.50;76.10;;;;;;5114392;28;20036;-80
2023/03/24 10:28:00;;;;;;;11.55;3.13;;;12.60;76.60;;;;;;5114260;28;20040;-79
2023/03/24 10:30:31;;;;;;;12.77;3.72;;;12.60;76.40;;;;;;5103282;28;20050;-78
2023/03/24 10:32:57;;;;;;;14.15;3.38;;;12.70;75.90;;;;;;5114044;28;20126;-79
2023/03/24 10:35:29;;;;;;;13.45;3.33;;;12.60;76.30;;;;;;5097164;28;20131;-79
2023/03/24 10:37:58;;;;;;;15.73;3.85;;;12.50;75.50;;;;;;5114323;28;20454;-78
2023/03/24 10:40:30;;;;;;;15.50;5.10;;;12.40;75.50;;;;;;5113955;28;20444;-79
2023/03/24 10:42:58;;;;;;;19.58;4.90;;;12.40;77.20;;;;;;5096838;28;20039;-79
2023/03/24 10:45:30;;;;;;;20.27;5.47;;;12.40;76.80;;;;;;5113740;28;20438;-78
2023/03/24 10:47:59;;;;;;;24.60;5.10;;;12.50;76.20;;;;;;5113873;28;20031;-79
2023/03/24 10:50:27;;;;;;;19.98;4.50;;;12.50;76.70;;;;;;5097079;28;20035;-79
2023/03/24 10:52:54;;;;;;;17.45;4.72;;;12.70;75.60;;;;;;5096844;28;20056;-79
2023/03/24 10:55:23;;;;;;;21.42;4.15;;;12.80;76.10;;;;;;5097073;28;20039;-79
2023/03/24 10:57:53;;;;;;;16.40;3.05;;;12.80;76.20;;;;;;5113610;28;20095;-79
2023/03/24 11:00:30;;;;;;;11.35;3.42;;;13.00;74.80;;;;;;5113919;28;20039;-78
2023/03/24 11:03:03;;;;;;;19.10;4.80;;;13.00;74.60;;;;;;5113385;28;20043;-78
2023/03/24 11:05:36;;;;;;;15.48;3.20;;;13.20;74.60;;;;;;5113514;28;20395;-79
2023/03/24 11:08:32;;;;;;;25.67;4.70;;;13.20;73.60;;;;;;5096539;28;20036;-79
2023/03/24 11:10:57;;;;;;;17.75;4.90;;;13.20;73.70;;;;;;5096355;28;20039;-78
2023/03/24 11:13:26;;;;;;;16.35;4.20;;;13.30;74.40;;;;;;5113732;28;20054;-79
2023/03/24 11:15:55;;;;;;;15.80;3.65;;;13.20;73.00;;;;;;5096850;28;20044;-79
2023/03/24 11:18:21;;;;;;;16.23;3.83;;;13.30;72.90;;;;;;5076441;28;20107;-79
2023/03/24 11:20:56;;;;;;;18.80;4.13;;;13.40;73.90;;;;;;5075988;28;20446;-77
2023/03/24 11:23:39;;;;;;;15.98;4.05;;;13.50;73.30;;;;;;5091984;28;20040;-78
2023/03/24 11:26:15;;;;;;;15.77;2.80;;;13.40;72.40;;;;;;5093040;28;20036;-78
2023/03/24 11:28:46;;;;;;;15.13;3.47;;;13.40;71.60;;;;;;5092799;28;20073;-77
2023/03/24 11:31:23;;;;;;;15.30;2.78;;;13.20;72.40;;;;;;5092782;28;20047;-78
2023/03/24 11:34:18;;;;;;;16.17;4.72;;;13.10;72.10;;;;;;5092933;28;20131;-80
2023/03/24 11:36:57;;;;;;;20.80;5.00;;;13.10;73.40;;;;;;5075704;28;20040;-79
2023/03/24 11:39:28;;;;;;;15.18;3.60;;;13.30;73.90;;;;;;5092482;28;20043;-79
2023/03/24 11:42:13;;;;;;;13.90;5.00;;;13.40;72.50;;;;;;5092359;28;20036;-79
2023/03/24 11:44:52;;;;;;;14.00;3.17;;;13.40;72.90;;;;;;5096564;28;20055;-78
2023/03/24 11:47:35;;;;;;;14.52;3.67;;;13.30;72.20;;;;;;5112653;28;20043;-77
2023/03/24 11:50:10;;;;;;;13.63;3.47;;;13.20;72.50;;;;;;5113576;28;20106;-77
2023/03/24 11:52:41;;;;;;;11.85;3.38;;;13.00;71.70;;;;;;5096382;28;20122;-78
2023/03/24 11:55:35;;;;;;;11.65;3.30;;;13.00;70.10;;;;;;5096233;28;20043;-77
2023/03/24 11:58:27;;;;;;;16.85;3.35;;;13.00;71.00;;;;;;5113325;28;20043;-79
2023/03/24 12:01:03;;;;;;;14.05;3.53;;;13.00;70.90;;;;;;5113484;28;20188;-79
2023/03/24 12:03:55;;;;;;;15.82;3.60;;;13.00;72.10;;;;;;5096182;28;20047;-78
2023/03/24 12:06:30;;;;;;;11.88;2.60;;;13.30;72.50;;;;;;5113667;28;20058;-78
2023/03/24 12:08:58;;;;;;;15.70;3.75;;;13.50;72.80;;;;;;5113148;28;20039;-79
2023/03/24 12:11:51;;;;;;;11.80;3.22;;;13.50;70.90;;;;;;5113149;28;20498;-78
2023/03/24 12:14:32;;;;;;;18.50;2.60;;;13.50;72.10;;;;;;5112974;28;20039;-78
2023/03/24 12:17:08;;;;;;;19.52;4.20;;;13.60;71.20;;;;;;5117367;28;20087;-78
2023/03/24 12:19:59;;;;;;;12.73;3.25;;;13.70;70.10;;;;;;5115866;28;20071;-79
2023/03/24 12:22:52;;;;;;;14.55;3.22;;;13.50;67.90;;;;;;5114390;28;20433;-77
2023/03/24 12:25:21;;;;;;;10.23;2.95;;;13.50;68.90;;;;;;5113338;28;20043;-77
2023/03/24 12:27:59;;;;;;;12.38;2.30;;;13.70;70.20;;;;;;5098494;28;20054;-78
2023/03/24 12:30:47;;;;;;;10.60;2.58;;;14.00;69.30;;;;;;5115447;28;20042;-79
2023/03/24 12:33:22;;;;;;;13.20;3.75;;;14.10;68.40;;;;;;5113789;28;20165;-79
2023/03/24 12:36:16;;;;;;;13.00;3.80;;;14.10;68.90;;;;;;5117388;28;20047;-79
2023/03/24 12:39:12;;;;;;;12.63;2.75;;;14.20;68.10;;;;;;5117953;28;20087;-79
2023/03/24 12:42:04;;;;;;;9.77;3.05;;;14.20;68.00;;;;;;5099761;28;20032;-78
2023/03/24 12:44:55;;;;;;;12.45;3.13;;;14.10;67.80;;;;;;5097983;27;20130;-77
2023/03/24 12:47:44;;;;;;;14.27;3.17;;;14.10;67.60;;;;;;5098612;28;20043;-77
2023/03/24 12:50:25;;;;;;;15.02;4.40;;;14.00;69.50;;;;;;5097498;28;20054;-77
2023/03/24 12:53:22;;;;;;;15.05;4.22;;;14.00;69.00;;;;;;5114891;28;20043;-77
2023/03/24 12:55:59;;;;;;;15.82;4.30;;;14.20;68.30;;;;;;5149863;27;20055;-78
2023/03/24 12:58:45;;;;;;;11.63;3.33;;;14.10;67.90;;;;;;5115301;28;20041;-78
2023/03/24 13:01:35;;;;;;;14.38;3.10;;;14.00;67.50;;;;;;5114957;28;20056;-77
2023/03/24 13:04:14;;;;;;;13.25;3.15;;;13.90;67.10;;;;;;5115129;28;20371;-77
2023/03/24 13:07:13;;;;;;;11.05;2.60;;;14.00;67.70;;;;;;5114855;28;20074;-77
2023/03/24 13:09:45;;;;;;;11.00;3.25;;;13.90;68.00;;;;;;5098059;28;20039;-77